Time;durP1;ratioP1;P1;durP2;ratioP2;P2;SDS_P1;SDS_P2;PMS_P1;PMS_P2;Temp;Humidity;BMP_temperature;BMP_pressure;BME280_temperature;BME280_humidity;BME280_pressure;Samples;Min_cycle;Max_cycle;Signal;HPM_P1;HPM_P2
2023/05/16 00:00:33;;;;;;;1999.90;999.90;;;;;;;11.50;100.00;94438.22;5106446;28;20392;-66
2023/05/16 00:03:00;;;;;;;1999.90;999.90;;;;;;;11.53;100.00;94437.38;5106289;28;20179;-65
2023/05/16 00:05:25;;;;;;;1999.90;999.90;;;;;;;11.56;100.00;94436.50;5106100;28;20175;-65
2023/05/16 00:07:51;;;;;;;1999.90;999.90;;;;;;;11.52;100.00;94435.84;5106186;28;20205;-65
2023/05/16 00:10:17;;;;;;;1999.90;999.90;;;;;;;11.50;100.00;94440.97;5106194;28;20181;-66
2023/05/16 00:12:43;;;;;;;1999.90;999.90;;;;;;;11.44;100.00;94431.78;5106014;28;20361;-66
2023/05/16 00:15:13;;;;;;;1999.90;999.90;;;;;;;11.43;100.00;94425.53;5106646;28;20202;-66
2023/05/16 00:17:39;;;;;;;1999.90;999.90;;;;;;;11.43;100.00;94430.22;5106198;28;20172;-66
2023/05/16 00:20:13;;;;;;;1999.90;999.90;;;;;;;11.46;100.00;94421.16;5105767;28;20287;-65
2023/05/16 00:22:39;;;;;;;1999.90;999.90;;;;;;;11.40;100.00;94422.91;5106617;28;20171;-64
2023/05/16 00:25:05;;;;;;;1999.90;999.90;;;;;;;11.39;100.00;94421.34;5105756;28;20183;-64
2023/05/16 00:27:33;;;;;;;1999.90;999.90;;;;;;;11.35;100.00;94415.22;5106255;28;20181;-66
2023/05/16 00:29:59;;;;;;;1999.90;999.90;;;;;;;11.31;100.00;94403.63;5105372;28;20171;-65
2023/05/16 00:32:24;;;;;;;1999.90;999.90;;;;;;;11.31;100.00;94392.69;5105729;28;20193;-65
2023/05/16 00:34:50;;;;;;;1999.90;999.90;;;;;;;11.37;100.00;94388.22;5105522;28;20226;-65
2023/05/16 00:37:15;;;;;;;1999.90;999.90;;;;;;;11.36;100.00;94389.44;5105845;28;20526;-65
2023/05/16 00:39:40;;;;;;;1999.90;999.90;;;;;;;11.36;100.00;94378.50;5105722;28;20192;-66
2023/05/16 00:42:06;;;;;;;1999.90;999.90;;;;;;;11.36;100.00;94378.50;5106363;28;20182;-65
2023/05/16 00:44:31;;;;;;;1999.90;999.90;;;;;;;11.35;100.00;94375.00;5105374;28;20278;-66
2023/05/16 00:46:59;;;;;;;1999.90;999.90;;;;;;;11.34;100.00;94372.69;5105389;28;20177;-65
2023/05/16 00:49:24;;;;;;;1999.90;999.90;;;;;;;11.34;100.00;94370.72;5105315;28;20167;-66
2023/05/16 00:51:50;;;;;;;1999.90;999.90;;;;;;;11.32;100.00;94375.06;5105780;28;20171;-67
2023/05/16 00:54:16;;;;;;;1999.90;999.90;;;;;;;11.30;100.00;94375.53;5105303;28;20210;-66
2023/05/16 00:56:41;;;;;;;1999.90;999.90;;;;;;;11.31;100.00;94379.00;5105182;28;20462;-67
2023/05/16 00:59:07;;;;;;;1999.90;999.90;;;;;;;11.32;100.00;94378.59;5105496;28;20179;-67
2023/05/16 01:01:33;;;;;;;1999.90;999.90;;;;;;;11.34;100.00;94368.00;5105406;28;20452;-67
2023/05/16 01:03:59;;;;;;;1999.90;999.90;;;;;;;11.36;100.00;94367.56;5104754;28;20180;-66
2023/05/16 01:06:25;;;;;;;1999.90;999.90;;;;;;;11.35;100.00;94366.00;5105779;28;20176;-66
2023/05/16 01:08:50;;;;;;;1999.90;999.90;;;;;;;11.31;100.00;94360.66;5104960;28;20290;-66
2023/05/16 01:11:32;;;;;;;1999.90;999.90;;;;;;;11.29;100.00;94352.13;5105235;28;20171;-65
2023/05/16 01:14:13;;;;;;;1999.90;999.90;;;;;;;11.27;100.00;94360.00;5105311;28;20195;-65
2023/05/16 01:16:45;;;;;;;1999.90;999.90;;;;;;;11.31;100.00;94343.47;5105308;28;20174;-66
2023/05/16 01:19:36;;;;;;;1999.90;999.90;;;;;;;11.32;100.00;94350.47;5105330;28;20214;-65
2023/05/16 01:22:14;;;;;;;1999.90;999.90;;;;;;;11.34;100.00;94337.16;5104372;28;20443;-65
2023/05/16 01:24:59;;;;;;;1999.90;999.90;;;;;;;11.33;100.00;94341.09;5105214;28;20187;-65
2023/05/16 01:27:26;;;;;;;1999.90;999.90;;;;;;;11.33;100.00;94335.63;5104353;28;20181;-65
2023/05/16 01:29:55;;;;;;;1999.90;999.90;;;;;;;11.32;100.00;94345.78;5105133;28;20175;-66
2023/05/16 01:32:21;;;;;;;1999.90;999.90;;;;;;;11.32;100.00;94339.53;5105100;28;20176;-66
2023/05/16 01:34:47;;;;;;;1999.90;999.90;;;;;;;11.26;100.00;94338.56;5105215;28;20247;-65
2023/05/16 01:37:20;;;;;;;1999.90;999.90;;;;;;;11.22;100.00;94337.91;5104479;28;20180;-65
2023/05/16 01:39:58;;;;;;;1999.90;999.90;;;;;;;11.27;100.00;94331.88;5104411;28;20194;-64
2023/05/16 01:42:26;;;;;;;1999.90;999.90;;;;;;;11.26;100.00;94330.38;5104469;28;20166;-65
2023/05/16 01:45:00;;;;;;;1999.90;999.90;;;;;;;11.21;100.00;94328.13;5104291;28;20186;-64
2023/05/16 01:47:28;;;;;;;1999.90;999.90;;;;;;;11.20;100.00;94326.63;5104917;28;20187;-64
2023/05/16 01:49:54;;;;;;;1999.90;999.90;;;;;;;11.15;100.00;94321.69;5104886;28;20163;-64
2023/05/16 01:52:31;;;;;;;1999.90;999.90;;;;;;;11.18;100.00;94318.09;5104261;28;20179;-64
2023/05/16 01:54:58;;;;;;;1999.90;999.90;;;;;;;11.11;100.00;94312.84;5104637;28;20210;-64
2023/05/16 01:57:25;;;;;;;1999.90;999.90;;;;;;;11.12;100.00;94315.13;5104727;28;20171;-64
2023/05/16 01:59:51;;;;;;;1999.90;999.90;;;;;;;11.10;100.00;94309.31;5104120;28;20298;-65
2023/05/16 02:02:20;;;;;;;1999.90;999.90;;;;;;;11.12;100.00;94304.22;5104718;28;20262;-65
2023/05/16 02:04:45;;;;;;;1999.90;999.90;;;;;;;11.10;100.00;94305.81;5104039;28;20239;-64
2023/05/16 02:07:13;;;;;;;1999.90;999.90;;;;;;;11.07;100.00;94303.97;5103827;28;20210;-65
2023/05/16 02:09:39;;;;;;;1999.90;999.90;;;;;;;11.09;100.00;94309.75;5103971;28;20164;-65
2023/05/16 02:12:04;;;;;;;1999.90;999.90;;;;;;;11.07;100.00;94312.16;5104184;28;20171;-65
2023/05/16 02:14:30;;;;;;;1999.90;999.90;;;;;;;11.04;100.00;94313.78;5103789;28;20195;-65
2023/05/16 02:16:56;;;;;;;1999.90;999.90;;;;;;;11.08;100.00;94313.69;5103856;28;20250;-65
2023/05/16 02:19:21;;;;;;;1999.90;999.90;;;;;;;11.10;100.00;94322.22;5104447;28;20166;-65
2023/05/16 02:21:46;;;;;;;1999.90;999.90;;;;;;;11.10;100.00;94316.75;5103601;28;20222;-65
2023/05/16 02:24:12;;;;;;;1999.90;999.90;;;;;;;11.09;100.00;94315.22;5103641;28;20181;-64
2023/05/16 02:26:37;;;;;;;1999.90;999.90;;;;;;;11.09;100.00;94326.16;5103871;28;20171;-65
2023/05/16 02:29:02;;;;;;;1999.90;999.90;;;;;;;11.09;100.00;94326.16;5104334;28;20257;-65
2023/05/16 02:31:29;;;;;;;1999.90;999.90;;;;;;;11.08;100.00;94330.09;5103901;28;20188;-66
2023/05/16 02:33:56;;;;;;;1999.90;999.90;;;;;;;11.07;100.00;94328.56;5103734;28;20273;-66
2023/05/16 02:36:21;;;;;;;1999.90;999.90;;;;;;;11.07;100.00;94339.50;5104353;28;20175;-66
2023/05/16 02:38:46;;;;;;;1999.90;999.90;;;;;;;11.07;100.00;94334.03;5103696;28;20178;-66
2023/05/16 02:41:12;;;;;;;1999.90;999.90;;;;;;;11.09;100.00;94337.06;5103756;28;20175;-66
2023/05/16 02:43:37;;;;;;;1999.90;999.90;;;;;;;11.13;100.00;94340.47;5104172;28;20179;-66
2023/05/16 02:46:26;;;;;;;1999.90;999.90;;;;;;;11.11;100.00;94338.16;5103636;28;20190;-66
2023/05/16 02:48:53;;;;;;;1999.90;999.90;;;;;;;11.13;100.00;94333.06;5103598;28;20182;-67
2023/05/16 02:51:23;;;;;;;1999.90;999.90;;;;;;;11.16;100.00;94342.34;5103370;28;20174;-66
2023/05/16 02:53:49;;;;;;;1999.90;999.90;;;;;;;11.15;100.00;94343.56;5103433;28;20213;-67
2023/05/16 02:56:14;;;;;;;1999.90;999.90;;;;;;;11.16;100.00;94343.13;5104097;28;20176;-66
2023/05/16 02:58:41;;;;;;;1999.90;999.90;;;;;;;11.14;100.00;94350.22;5103772;28;20179;-67
2023/05/16 03:01:06;;;;;;;1999.90;999.90;;;;;;;11.11;100.00;94359.28;5104086;28;20212;-66
2023/05/16 03:03:34;;;;;;;1999.90;999.90;;;;;;;11.07;100.00;94356.63;5103973;28;20212;-67
2023/05/16 03:05:59;;;;;;;1999.90;999.90;;;;;;;11.07;100.00;94358.59;5103532;28;20257;-67
2023/05/16 03:08:25;;;;;;;1999.90;999.90;;;;;;;11.06;100.00;94355.09;5103518;28;20202;-67
2023/05/16 03:10:50;;;;;;;1999.90;999.90;;;;;;;11.06;100.00;94351.59;5103448;28;20170;-68
2023/05/16 03:13:16;;;;;;;1999.90;999.90;;;;;;;11.07;100.00;94350.41;5103421;28;20168;-66
2023/05/16 03:15:41;;;;;;;1999.90;999.90;;;;;;;11.09;100.00;94342.53;5103286;28;20195;-67
2023/05/16 03:18:07;;;;;;;1999.90;999.90;;;;;;;11.09;100.00;94337.84;5103972;28;20168;-65
2023/05/16 03:20:32;;;;;;;1999.90;999.90;;;;;;;11.13;100.00;94343.19;5103276;28;20216;-65
2023/05/16 03:22:58;;;;;;;1999.90;999.90;;;;;;;11.14;100.00;94331.09;5104771;28;20172;-65
2023/05/16 03:25:23;;;;;;;1999.90;999.90;;;;;;;11.13;100.00;94332.28;5107106;28;20171;-65
2023/05/16 03:27:48;;;;;;;1999.90;999.90;;;;;;;11.12;100.00;94330.75;5107583;28;20195;-67
2023/05/16 03:30:15;;;;;;;1999.90;999.90;;;;;;;11.14;100.00;94322.91;5106988;28;20178;-67
2023/05/16 03:32:40;;;;;;;1999.90;999.90;;;;;;;11.15;100.00;94318.97;5106884;28;20170;-67
2023/05/16 03:35:06;;;;;;;1999.90;999.90;;;;;;;11.13;100.00;94321.34;5106760;28;20248;-67
2023/05/16 03:37:31;;;;;;;1999.90;999.90;;;;;;;11.14;100.00;94317.44;5107387;28;20170;-66
2023/05/16 03:39:57;;;;;;;1999.90;999.90;;;;;;;11.16;100.00;94315.03;5106375;28;20178;-65
2023/05/16 03:42:22;;;;;;;1999.90;999.90;;;;;;;11.16;100.00;94325.94;5106754;28;20176;-65
2023/05/16 03:44:47;;;;;;;1999.90;999.90;;;;;;;11.15;100.00;94324.44;5106618;28;20198;-65
2023/05/16 03:47:13;;;;;;;1999.90;999.90;;;;;;;11.19;100.00;94325.09;5106554;28;20206;-65
2023/05/16 03:49:39;;;;;;;1999.90;999.90;;;;;;;11.20;100.00;94332.09;5106495;28;20485;-69
2023/05/16 03:52:04;;;;;;;1999.90;999.90;;;;;;;11.19;100.00;94345.00;5107080;28;20217;-66
2023/05/16 03:54:30;;;;;;;1999.90;999.90;;;;;;;11.18;100.00;94353.63;5106130;28;20200;-66
2023/05/16 03:56:56;;;;;;;1999.90;999.90;;;;;;;11.18;100.00;94353.63;5106338;28;20178;-67
2023/05/16 03:59:21;;;;;;;1999.90;999.90;;;;;;;11.18;100.00;94372.75;5106370;28;20217;-66
2023/05/16 04:01:46;;;;;;;1999.90;999.90;;;;;;;11.18;100.00;94378.97;5106315;28;20247;-67
2023/05/16 04:04:13;;;;;;;1999.90;999.90;;;;;;;11.18;100.00;94384.44;5106376;28;20192;-66
2023/05/16 04:06:38;;;;;;;1999.90;999.90;;;;;;;11.18;100.00;94394.63;5106735;28;20226;-67
2023/05/16 04:09:05;;;;;;;1999.90;999.90;;;;;;;11.18;100.00;94405.53;5106684;28;20174;-66
2023/05/16 04:11:31;;;;;;;1999.90;999.90;;;;;;;11.16;100.00;94410.66;5106639;28;20178;-66
2023/05/16 04:13:56;;;;;;;1999.90;999.90;;;;;;;11.15;100.00;94404.41;5106026;28;20215;-66
2023/05/16 04:16:22;;;;;;;1999.90;999.90;;;;;;;11.15;100.00;94420.81;5106054;28;20198;-66
2023/05/16 04:18:47;;;;;;;1999.90;999.90;;;;;;;11.14;100.00;94424.00;5106207;28;20268;-66
2023/05/16 04:21:14;;;;;;;1999.90;999.90;;;;;;;11.11;100.00;94433.06;5105545;28;20245;-65
2023/05/16 04:23:40;;;;;;;1999.90;999.90;;;;;;;11.14;100.00;94421.25;5105739;28;20171;-66
2023/05/16 04:26:05;;;;;;;1999.90;999.90;;;;;;;11.18;100.00;94419.94;5105796;28;20178;-66
2023/05/16 04:28:31;;;;;;;1999.90;999.90;;;;;;;11.26;100.00;94426.00;5106375;28;20176;-66
2023/05/16 04:30:56;;;;;;;1999.90;999.90;;;;;;;11.28;100.00;94434.53;5105618;28;20178;-66
2023/05/16 04:33:22;;;;;;;1999.90;999.90;;;;;;;11.30;100.00;94440.34;5106308;28;20175;-65
2023/05/16 04:35:47;;;;;;;1999.90;999.90;;;;;;;11.27;100.00;94441.97;5104363;28;20248;-66
2023/05/16 04:38:12;;;;;;;1999.90;999.90;;;;;;;11.26;100.00;94456.06;5105595;28;20172;-65
2023/05/16 04:40:40;;;;;;;1999.90;999.90;;;;;;;11.25;100.00;94460.00;5105962;28;20175;-67
2023/05/16 04:43:06;;;;;;;1999.90;999.90;;;;;;;11.29;100.00;94460.69;5105542;28;20189;-66
2023/05/16 04:45:31;;;;;;;1999.90;999.90;;;;;;;11.31;100.00;94461.78;5105361;28;20191;-65
2023/05/16 04:47:56;;;;;;;1999.90;999.90;;;;;;;11.35;100.00;94464.41;5105368;28;20361;-65
2023/05/16 04:50:22;;;;;;;1999.90;999.90;;;;;;;11.35;100.00;94464.41;5105294;28;20357;-66
2023/05/16 04:52:47;;;;;;;1999.90;999.90;;;;;;;11.40;100.00;94455.72;5105287;28;20165;-66
2023/05/16 04:55:12;;;;;;;1999.90;999.90;;;;;;;11.42;100.00;94459.53;5105684;28;20194;-67
2023/05/16 04:57:38;;;;;;;1999.90;999.90;;;;;;;11.42;100.00;94466.97;5105694;28;20257;-67
2023/05/16 05:00:07;;;;;;;1999.90;999.90;;;;;;;11.43;100.00;94469.28;5105001;28;20179;-68
2023/05/16 05:02:33;;;;;;;1999.90;999.90;;;;;;;11.47;100.00;94466.47;5105648;28;20208;-67
2023/05/16 05:04:58;;;;;;;1999.90;999.90;;;;;;;11.38;100.00;94490.91;5105436;28;20184;-66
2023/05/16 05:07:27;;;;;;;1999.90;999.90;;;;;;;11.41;100.00;94495.50;5105469;28;20175;-66
2023/05/16 05:09:54;;;;;;;1999.90;999.90;;;;;;;11.42;100.00;94497.81;5104860;28;20243;-66
2023/05/16 05:12:20;;;;;;;1999.90;999.90;;;;;;;11.45;100.00;94504.38;5105304;28;20182;-66
2023/05/16 05:14:45;;;;;;;1999.90;999.90;;;;;;;11.40;100.00;94507.66;5104658;28;20203;-66
2023/05/16 05:17:11;;;;;;;1999.90;999.90;;;;;;;11.41;100.00;94522.84;5105372;28;20209;-65
2023/05/16 05:19:36;;;;;;;1999.90;999.90;;;;;;;11.39;100.00;94525.22;5105284;28;20180;-67
2023/05/16 05:22:02;;;;;;;1999.90;999.90;;;;;;;11.39;100.00;94528.75;5105047;28;20225;-65
2023/05/16 05:24:27;;;;;;;1999.90;999.90;;;;;;;11.41;100.00;94523.63;5104284;28;20187;-64
2023/05/16 05:26:52;;;;;;;1999.90;999.90;;;;;;;11.43;100.00;94529.41;5104284;28;20177;-65
2023/05/16 05:29:18;;;;;;;1999.90;999.90;;;;;;;11.48;100.00;94528.13;5104570;28;20179;-65
2023/05/16 05:31:43;;;;;;;1999.90;999.90;;;;;;;11.56;100.00;94524.78;5105127;28;20183;-66
2023/05/16 05:34:08;;;;;;;1999.90;999.90;;;;;;;11.59;100.00;94526.66;5105090;28;20300;-66
2023/05/16 05:36:34;;;;;;;1999.90;999.90;;;;;;;11.63;100.00;94537.53;5104442;28;20179;-65
2023/05/16 05:38:59;;;;;;;1999.90;999.90;;;;;;;11.64;100.00;94545.31;5104374;28;20207;-65
2023/05/16 05:41:26;;;;;;;1999.90;999.90;;;;;;;11.60;100.00;94555.53;5104850;28;20175;-65
2023/05/16 05:43:51;;;;;;;1999.90;999.90;;;;;;;11.64;100.00;94569.91;5104259;28;20186;-66
2023/05/16 05:46:16;;;;;;;1999.90;999.90;;;;;;;11.72;100.00;94570.50;5104553;28;20203;-66
2023/05/16 05:48:42;;;;;;;1999.90;999.90;;;;;;;11.77;100.00;94583.66;5104180;28;20180;-66
2023/05/16 05:51:07;;;;;;;1999.90;999.90;;;;;;;11.90;100.00;94585.25;5104624;28;20218;-66
2023/05/16 05:53:33;;;;;;;1999.90;999.90;;;;;;;12.01;100.00;94609.59;5104168;28;20183;-66
2023/05/16 05:55:58;;;;;;;1999.90;999.90;;;;;;;12.06;100.00;94611.81;5104538;28;20200;-66
2023/05/16 05:58:24;;;;;;;1999.90;999.90;;;;;;;12.07;100.00;94613.34;5104059;28;20228;-62
2023/05/16 06:00:49;;;;;;;1999.90;999.90;;;;;;;12.24;100.00;94623.06;5104058;28;20172;-64
2023/05/16 06:03:15;;;;;;;1999.90;999.90;;;;;;;12.28;100.00;94634.69;5104519;28;20244;-65
2023/05/16 06:05:41;;;;;;;1999.90;999.90;;;;;;;12.25;100.00;94651.97;5104071;28;20203;-66
2023/05/16 06:08:06;;;;;;;1999.90;999.90;;;;;;;12.33;100.00;94672.47;5104440;28;20176;-64
2023/05/16 06:10:31;;;;;;;1999.90;999.90;;;;;;;12.43;100.00;94668.69;5104300;28;20173;-65
2023/05/16 06:12:57;;;;;;;1999.90;999.90;;;;;;;12.46;100.00;94665.09;5103947;28;20397;-63
2023/05/16 06:15:24;;;;;;;1999.90;999.90;;;;;;;12.51;100.00;94676.28;5104413;28;20215;-67
2023/05/16 06:17:50;;;;;;;1999.90;999.90;;;;;;;12.49;100.00;94677.91;5103848;28;20249;-64
2023/05/16 06:20:15;;;;;;;1999.90;999.90;;;;;;;12.60;100.00;94684.63;5104226;28;20236;-65
2023/05/16 06:22:40;;;;;;;1999.90;999.90;;;;;;;12.60;100.00;94692.06;5104227;28;20206;-66
2023/05/16 06:25:06;;;;;;;1999.90;999.90;;;;;;;12.56;100.00;94699.63;5104302;28;20203;-64
2023/05/16 06:27:32;;;;;;;1999.90;999.90;;;;;;;12.61;100.00;94696.38;5103722;28;20198;-64
2023/05/16 06:29:57;;;;;;;1999.90;999.90;;;;;;;12.77;100.00;94690.81;5103669;28;20179;-64
2023/05/16 06:32:23;;;;;;;1999.90;999.90;;;;;;;12.77;100.00;94704.53;5103742;28;20218;-64
2023/05/16 06:34:48;;;;;;;1999.90;999.90;;;;;;;13.00;100.00;94707.00;5104079;28;20200;-64
2023/05/16 06:37:13;;;;;;;1999.90;999.90;;;;;;;13.20;100.00;94721.31;5103698;28;20179;-64
2023/05/16 06:39:39;;;;;;;1999.90;999.90;;;;;;;13.36;100.00;94729.47;5103637;28;20336;-66
2023/05/16 06:42:04;;;;;;;1999.90;999.90;;;;;;;13.39;100.00;94739.56;5104161;28;20172;-65
2023/05/16 06:44:30;;;;;;;1999.90;999.90;;;;;;;13.43;100.00;94751.19;5103461;28;20192;-64
2023/05/16 06:46:55;;;;;;;1999.90;999.90;;;;;;;13.43;100.00;94758.69;5103613;28;20173;-64
2023/05/16 06:49:20;;;;;;;1999.90;999.90;;;;;;;13.51;100.00;94758.00;5103627;28;20173;-65
2023/05/16 06:51:46;;;;;;;1999.90;999.90;;;;;;;13.48;100.00;94767.13;5104082;28;20169;-64
2023/05/16 06:54:11;;;;;;;1999.90;999.90;;;;;;;13.42;100.00;94776.31;5103374;28;20189;-65
2023/05/16 06:56:36;;;;;;;1999.90;999.90;;;;;;;13.25;100.00;94784.63;5103287;28;20176;-65
2023/05/16 06:59:02;;;;;;;1999.90;999.90;;;;;;;13.10;100.00;94778.00;5106115;28;20172;-65
2023/05/16 07:01:27;;;;;;;1999.90;999.90;;;;;;;13.09;100.00;94781.19;5107223;28;20266;-65
2023/05/16 07:03:53;;;;;;;1999.90;999.90;;;;;;;13.16;100.00;94775.50;5107399;28;20248;-65
2023/05/16 07:06:18;;;;;;;1999.90;999.90;;;;;;;13.33;100.00;94758.53;5107806;28;20169;-65
2023/05/16 07:08:43;;;;;;;1999.90;999.90;;;;;;;13.48;100.00;94764.38;5107757;28;20180;-65
2023/05/16 07:11:10;;;;;;;1999.90;999.90;;;;;;;13.52;100.00;94776.03;5107648;28;20168;-65
2023/05/16 07:13:36;;;;;;;1999.90;999.90;;;;;;;13.57;100.00;94767.25;5107648;28;20221;-64
2023/05/16 07:16:01;;;;;;;1999.90;999.90;;;;;;;13.58;100.00;94774.25;5107672;28;20196;-65
2023/05/16 07:18:27;;;;;;;1999.90;999.90;;;;;;;13.53;100.00;94772.06;5107411;28;20168;-64
2023/05/16 07:20:53;;;;;;;1999.90;999.90;;;;;;;13.55;100.00;94775.13;5106805;28;20277;-64
2023/05/16 07:23:18;;;;;;;1999.90;999.90;;;;;;;13.65;100.00;94768.56;5107608;28;20173;-75
2023/05/16 07:25:43;;;;;;;1999.90;999.90;;;;;;;13.54;100.00;94768.09;5107686;28;20228;-74
2023/05/16 07:28:09;;;;;;;1999.90;999.90;;;;;;;13.49;100.00;94771.41;5107096;28;20173;-64
2023/05/16 07:30:34;;;;;;;1999.90;999.90;;;;;;;13.42;100.00;94768.88;5107352;28;20208;-65
2023/05/16 07:33:00;;;;;;;1999.90;999.90;;;;;;;13.28;100.00;94772.78;5106850;28;20168;-65
2023/05/16 07:35:25;;;;;;;1999.90;999.90;;;;;;;13.25;100.00;94781.88;5107185;28;20207;-65
2023/05/16 07:37:51;;;;;;;1999.90;999.90;;;;;;;13.20;100.00;94770.69;5106799;28;20239;-65
2023/05/16 07:40:17;;;;;;;1999.90;999.90;;;;;;;13.21;100.00;94769.47;5106341;28;20169;-65
2023/05/16 07:42:43;;;;;;;1999.90;999.90;;;;;;;13.15;100.00;94763.00;5107225;28;20195;-66
2023/05/16 07:45:09;;;;;;;1999.90;999.90;;;;;;;13.09;100.00;94764.72;5106465;28;20192;-65
2023/05/16 07:47:34;;;;;;;1999.90;999.90;;;;;;;13.10;100.00;94771.75;5106734;28;20169;-65
2023/05/16 07:50:00;;;;;;;1999.90;999.90;;;;;;;13.07;100.00;94767.13;5106995;28;20218;-64
2023/05/16 07:52:26;;;;;;;1999.90;999.90;;;;;;;13.05;100.00;94772.28;5106915;28;20247;-64
2023/05/16 07:54:51;;;;;;;1999.90;999.90;;;;;;;13.05;100.00;94753.09;5106775;28;20314;-64
2023/05/16 07:57:17;;;;;;;1999.90;999.90;;;;;;;13.03;100.00;94758.22;5106435;28;20172;-65
2023/05/16 07:59:43;;;;;;;1999.90;999.90;;;;;;;12.88;100.00;94755.09;5106200;28;20169;-66
2023/05/16 08:02:09;;;;;;;1999.90;999.90;;;;;;;12.74;100.00;94750.00;5106693;28;20177;-64
2023/05/16 08:04:35;;;;;;;1999.90;999.90;;;;;;;12.73;100.00;94742.22;5106773;28;20176;-67
2023/05/16 08:07:00;;;;;;;1999.90;999.90;;;;;;;12.75;100.00;94739.81;5106331;28;20169;-65
2023/05/16 08:09:26;;;;;;;1999.90;999.90;;;;;;;12.52;100.00;94743.53;5106523;28;20191;-65
2023/05/16 08:11:51;;;;;;;1999.90;999.90;;;;;;;12.51;100.00;94735.75;5106798;28;20169;-65
2023/05/16 08:14:17;;;;;;;1999.90;999.90;;;;;;;12.66;100.00;94724.00;5106112;28;20196;-65
2023/05/16 08:16:43;;;;;;;1999.90;999.90;;;;;;;12.72;100.00;94710.53;5105963;28;20183;-63
2023/05/16 08:19:08;;;;;;;1999.90;999.90;;;;;;;12.82;100.00;94714.97;5105997;28;20175;-65
2023/05/16 08:21:33;;;;;;;1999.90;999.90;;;;;;;12.91;100.00;94715.09;5105731;28;20288;-65
2023/05/16 08:23:59;;;;;;;1999.90;999.90;;;;;;;13.14;100.00;94709.34;5105940;28;20169;-66
2023/05/16 08:26:25;;;;;;;1999.90;999.90;;;;;;;13.29;100.00;94713.22;5105872;28;20175;-65
2023/05/16 08:28:50;;;;;;;1999.90;999.90;;;;;;;13.27;100.00;94723.88;5105703;28;20236;-66
2023/05/16 08:31:16;;;;;;;1999.90;999.90;;;;;;;13.30;100.00;94731.97;5106490;28;20518;-66
2023/05/16 08:33:41;;;;;;;1999.90;999.90;;;;;;;13.34;100.00;94734.63;5105886;28;20179;-66
2023/05/16 08:36:08;;;;;;;1999.90;999.90;;;;;;;13.41;100.00;94737.16;5106037;28;20208;-65
2023/05/16 08:38:34;;;;;;;1999.90;999.90;;;;;;;13.57;100.00;94739.81;5105427;28;20181;-63
2023/05/16 08:40:59;;;;;;;1999.90;999.90;;;;;;;13.64;100.00;94739.59;5105517;28;20183;-63
2023/05/16 08:43:24;;;;;;;1999.90;999.90;;;;;;;13.75;100.00;94740.03;5105438;28;20374;-64
2023/05/16 08:45:50;;;;;;;1999.90;999.90;;;;;;;13.80;100.00;94747.69;5104923;28;20198;-64
2023/05/16 08:48:18;;;;;;;1999.90;999.90;;;;;;;13.92;100.00;94749.69;5105225;28;20198;-64
2023/05/16 08:50:43;;;;;;;1999.90;999.90;;;;;;;14.00;100.00;94756.50;5105387;28;20259;-63
2023/05/16 08:53:11;;;;;;;1999.90;999.90;;;;;;;14.02;100.00;94762.31;5105330;28;20177;-63
2023/05/16 08:55:40;;;;;;;1999.90;999.90;;;;;;;14.03;100.00;94761.13;5105066;28;20443;-64
2023/05/16 08:58:06;;;;;;;1999.90;999.90;;;;;;;13.95;100.00;94767.25;5105161;28;20240;-63
2023/05/16 09:00:31;;;;;;;1999.90;999.90;;;;;;;13.93;100.00;94775.94;5105650;28;20173;-64
2023/05/16 09:02:56;;;;;;;1999.90;999.90;;;;;;;13.92;100.00;94768.91;5105027;28;20179;-63
2023/05/16 09:05:23;;;;;;;1999.90;999.90;;;;;;;13.79;100.00;94770.88;5105080;28;20177;-63
2023/05/16 09:07:48;;;;;;;1999.90;999.90;;;;;;;13.75;100.00;94762.00;5104983;28;20177;-63
2023/05/16 09:10:14;;;;;;;1999.90;999.90;;;;;;;13.70;100.00;94743.34;5104615;28;20173;-64
2023/05/16 09:12:40;;;;;;;1999.90;999.90;;;;;;;13.84;100.00;94731.88;5105043;28;20176;-64
2023/05/16 09:15:09;;;;;;;1999.90;999.90;;;;;;;13.96;100.00;94717.41;5104716;28;20207;-64
2023/05/16 09:17:45;;;;;;;1999.90;999.90;;;;;;;14.25;100.00;94703.53;5104704;28;20169;-64
2023/05/16 09:20:12;;;;;;;1999.90;999.90;;;;;;;14.49;100.00;94702.69;5104676;28;20265;-65
2023/05/16 09:22:37;;;;;;;1999.90;999.90;;;;;;;14.83;100.00;94719.16;5104578;28;20171;-66
2023/05/16 09:25:03;;;;;;;1999.90;999.90;;;;;;;15.32;100.00;94725.63;5104940;28;20170;-65
2023/05/16 09:27:32;;;;;;;1999.90;999.90;;;;;;;15.73;100.00;94763.78;5104359;28;20210;-65
2023/05/16 09:29:58;;;;;;;1999.90;999.90;;;;;;;16.06;100.00;94784.13;5103922;28;20194;-67
2023/05/16 09:32:24;;;;;;;1999.90;999.90;;;;;;;16.57;100.00;94808.53;5104265;28;20231;-65
2023/05/16 09:34:52;;;;;;;1999.90;999.90;;;;;;;16.85;100.00;94826.66;5104849;28;20380;-65
2023/05/16 09:37:18;;;;;;;1999.90;999.90;;;;;;;17.26;100.00;94832.38;5104890;28;20241;-65
2023/05/16 09:39:48;;;;;;;1999.90;999.90;;;;;;;17.29;100.00;94847.25;5104638;28;20236;-66
2023/05/16 09:42:15;;;;;;;1999.90;999.90;;;;;;;17.02;100.00;94861.81;5104661;28;20173;-66
2023/05/16 09:44:51;;;;;;;1999.90;999.90;;;;;;;16.67;100.00;94863.25;5104777;28;20189;-66
2023/05/16 09:47:17;;;;;;;1999.90;999.90;;;;;;;16.58;100.00;94851.41;5104919;28;20515;-66
2023/05/16 09:49:45;;;;;;;1999.90;999.90;;;;;;;16.55;100.00;94849.56;5104879;28;20164;-65
2023/05/16 09:52:10;;;;;;;1999.90;999.90;;;;;;;16.43;100.00;94849.22;5104008;28;20469;-63
2023/05/16 09:54:36;;;;;;;1999.90;999.90;;;;;;;16.35;100.00;94856.19;5104089;28;20206;-64
2023/05/16 09:57:01;;;;;;;1999.90;999.90;;;;;;;16.47;100.00;94849.09;5104574;28;20237;-64
2023/05/16 09:59:34;;;;;;;1999.90;999.90;;;;;;;16.48;100.00;94855.34;5104224;28;20507;-63
2023/05/16 10:02:00;;;;;;;1999.90;999.90;;;;;;;16.40;100.00;94860.38;5104579;28;20173;-64
2023/05/16 10:04:25;;;;;;;1999.90;999.90;;;;;;;15.74;100.00;94861.69;5104268;28;20180;-63
2023/05/16 10:06:54;;;;;;;1999.90;999.90;;;;;;;15.65;100.00;94860.84;5104035;28;20175;-63
2023/05/16 10:09:21;;;;;;;1999.90;999.90;;;;;;;15.51;100.00;94851.13;5104224;28;20173;-63
2023/05/16 10:11:47;;;;;;;1999.90;999.90;;;;;;;15.26;100.00;94845.69;5104471;28;20173;-64
2023/05/16 10:14:16;;;;;;;1999.90;999.90;;;;;;;15.20;100.00;94853.00;5103913;28;20505;-64
2023/05/16 10:16:43;;;;;;;1999.90;999.90;;;;;;;15.16;100.00;94846.84;5103724;28;20191;-64
2023/05/16 10:19:10;;;;;;;1999.90;999.90;;;;;;;15.28;100.00;94832.28;5123391;23;20237;-71
2023/05/16 10:21:37;;;;;;;1999.90;999.90;;;;;;;15.22;100.00;94833.28;5043424;28;20185;-72
2023/05/16 10:26:38;;;;;;;1999.90;999.90;;;;;;;15.43;100.00;94827.84;5705786;22;20572;-61
2023/05/16 10:29:04;;;;;;;1999.90;999.90;;;;;;;15.24;100.00;94815.13;5039567;23;20297;-59
2023/05/16 10:31:29;;;;;;;1999.90;999.90;;;;;;;15.20;100.00;94819.22;5007221;28;20202;-58
2023/05/16 10:33:56;;;;;;;1999.90;999.90;;;;;;;15.08;100.00;94818.03;5009471;28;20198;-58
2023/05/16 10:36:22;;;;;;;1999.90;999.90;;;;;;;15.07;100.00;94808.25;5028870;28;20199;-58
2023/05/16 10:38:49;;;;;;;1999.90;999.90;;;;;;;15.01;100.00;94799.03;5011624;28;20218;-59
2023/05/16 10:41:15;;;;;;;1999.90;999.90;;;;;;;14.79;100.00;94800.97;5011326;28;20205;-59
2023/05/16 10:43:44;;;;;;;1999.90;999.90;;;;;;;14.55;100.00;94791.59;5413257;23;20223;-62
2023/05/16 10:46:10;;;;;;;1999.90;999.90;;;;;;;14.51;100.00;94776.44;5000813;28;20199;-62